sensor_id;sensor_type;location;lat;lon;timestamp;P1;durP1;ratioP1;P2;durP2;ratioP2
10711;SDS011;5407;51.234;6.804;2023-12-20T00:01:20;11.30;;;5.63;;
10711;SDS011;5407;51.234;6.804;2023-12-20T00:03:47;10.80;;;5.60;;
10711;SDS011;5407;51.234;6.804;2023-12-20T00:06:16;9.30;;;5.50;;
10711;SDS011;5407;51.234;6.804;2023-12-20T00:08:43;13.73;;;5.00;;
10711;SDS011;5407;51.234;6.804;2023-12-20T00:11:10;5.43;;;4.87;;
10711;SDS011;5407;51.234;6.804;2023-12-20T00:13:37;6.30;;;4.90;;
10711;SDS011;5407;51.234;6.804;2023-12-20T00:16:04;6.93;;;4.57;;
10711;SDS011;5407;51.234;6.804;2023-12-20T00:18:31;9.00;;;5.00;;
10711;SDS011;5407;51.234;6.804;2023-12-20T00:20:59;8.33;;;4.90;;
10711;SDS011;5407;51.234;6.804;2023-12-20T00:23:27;11.03;;;4.67;;
10711;SDS011;5407;51.234;6.804;2023-12-20T00:25:55;8.83;;;4.53;;
10711;SDS011;5407;51.234;6.804;2023-12-20T00:28:23;8.67;;;4.90;;
10711;SDS011;5407;51.234;6.804;2023-12-20T00:30:53;8.00;;;4.50;;
10711;SDS011;5407;51.234;6.804;2023-12-20T00:33:21;9.50;;;5.07;;
10711;SDS011;5407;51.234;6.804;2023-12-20T00:35:53;7.47;;;5.10;;
10711;SDS011;5407;51.234;6.804;2023-12-20T00:38:24;8.60;;;5.47;;
10711;SDS011;5407;51.234;6.804;2023-12-20T00:40:59;12.23;;;5.50;;
10711;SDS011;5407;51.234;6.804;2023-12-20T00:43:27;8.20;;;5.47;;
10711;SDS011;5407;51.234;6.804;2023-12-20T00:45:57;12.40;;;5.63;;
10711;SDS011;5407;51.234;6.804;2023-12-20T00:48:34;10.63;;;5.23;;
10711;SDS011;5407;51.234;6.804;2023-12-20T00:51:16;10.77;;;5.93;;
10711;SDS011;5407;51.234;6.804;2023-12-20T00:53:46;8.80;;;5.97;;
10711;SDS011;5407;51.234;6.804;2023-12-20T00:56:15;10.10;;;6.13;;
10711;SDS011;5407;51.234;6.804;2023-12-20T00:58:42;8.77;;;6.87;;
10711;SDS011;5407;51.234;6.804;2023-12-20T01:01:13;12.30;;;7.00;;
10711;SDS011;5407;51.234;6.804;2023-12-20T01:03:40;10.73;;;7.20;;
10711;SDS011;5407;51.234;6.804;2023-12-20T01:06:07;14.07;;;7.17;;
10711;SDS011;5407;51.234;6.804;2023-12-20T01:08:34;13.17;;;8.33;;
10711;SDS011;5407;51.234;6.804;2023-12-20T01:11:05;11.63;;;8.83;;
10711;SDS011;5407;51.234;6.804;2023-12-20T01:13:32;13.53;;;8.93;;
10711;SDS011;5407;51.234;6.804;2023-12-20T01:15:59;15.57;;;9.97;;
10711;SDS011;5407;51.234;6.804;2023-12-20T01:18:26;15.47;;;11.30;;
10711;SDS011;5407;51.234;6.804;2023-12-20T01:21:01;16.70;;;11.77;;
10711;SDS011;5407;51.234;6.804;2023-12-20T01:23:32;15.83;;;11.77;;
10711;SDS011;5407;51.234;6.804;2023-12-20T01:26:05;14.83;;;13.20;;
10711;SDS011;5407;51.234;6.804;2023-12-20T01:28:41;20.07;;;13.37;;
10711;SDS011;5407;51.234;6.804;2023-12-20T01:31:14;18.50;;;13.77;;
10711;SDS011;5407;51.234;6.804;2023-12-20T01:33:45;21.70;;;14.43;;
10711;SDS011;5407;51.234;6.804;2023-12-20T01:36:38;21.33;;;13.60;;
10711;SDS011;5407;51.234;6.804;2023-12-20T01:39:20;20.27;;;13.77;;
10711;SDS011;5407;51.234;6.804;2023-12-20T01:41:53;21.70;;;13.53;;
10711;SDS011;5407;51.234;6.804;2023-12-20T01:44:21;15.13;;;13.17;;
10711;SDS011;5407;51.234;6.804;2023-12-20T01:46:48;19.00;;;12.53;;
10711;SDS011;5407;51.234;6.804;2023-12-20T01:49:15;21.03;;;11.27;;
10711;SDS011;5407;51.234;6.804;2023-12-20T01:51:46;18.67;;;11.60;;
10711;SDS011;5407;51.234;6.804;2023-12-20T01:54:13;19.50;;;11.10;;
10711;SDS011;5407;51.234;6.804;2023-12-20T01:56:41;20.40;;;11.00;;
10711;SDS011;5407;51.234;6.804;2023-12-20T01:59:10;17.13;;;10.37;;
10711;SDS011;5407;51.234;6.804;2023-12-20T02:01:38;17.73;;;10.63;;
10711;SDS011;5407;51.234;6.804;2023-12-20T02:04:11;20.13;;;10.80;;
10711;SDS011;5407;51.234;6.804;2023-12-20T02:06:47;19.17;;;10.60;;
10711;SDS011;5407;51.234;6.804;2023-12-20T02:09:21;18.50;;;10.47;;
10711;SDS011;5407;51.234;6.804;2023-12-20T02:11:57;18.90;;;9.90;;
10711;SDS011;5407;51.234;6.804;2023-12-20T02:15:12;29.10;;;10.50;;
10711;SDS011;5407;51.234;6.804;2023-12-20T02:17:39;22.80;;;10.00;;
10711;SDS011;5407;51.234;6.804;2023-12-20T02:20:06;17.90;;;9.97;;
10711;SDS011;5407;51.234;6.804;2023-12-20T02:22:35;20.17;;;9.57;;
10711;SDS011;5407;51.234;6.804;2023-12-20T02:25:02;26.07;;;10.40;;
10711;SDS011;5407;51.234;6.804;2023-12-20T02:27:29;18.47;;;9.33;;
10711;SDS011;5407;51.234;6.804;2023-12-20T02:29:57;25.40;;;9.77;;
10711;SDS011;5407;51.234;6.804;2023-12-20T02:32:24;19.77;;;8.57;;
10711;SDS011;5407;51.234;6.804;2023-12-20T02:34:52;22.57;;;9.13;;
10711;SDS011;5407;51.234;6.804;2023-12-20T02:37:20;17.87;;;8.50;;
10711;SDS011;5407;51.234;6.804;2023-12-20T02:39:48;18.27;;;8.97;;
10711;SDS011;5407;51.234;6.804;2023-12-20T02:42:15;22.97;;;8.20;;
10711;SDS011;5407;51.234;6.804;2023-12-20T02:44:42;15.87;;;7.57;;
10711;SDS011;5407;51.234;6.804;2023-12-20T02:47:09;19.37;;;7.60;;
10711;SDS011;5407;51.234;6.804;2023-12-20T02:49:36;14.47;;;6.43;;
10711;SDS011;5407;51.234;6.804;2023-12-20T02:52:03;18.27;;;7.47;;
10711;SDS011;5407;51.234;6.804;2023-12-20T02:54:30;20.23;;;6.60;;
10711;SDS011;5407;51.234;6.804;2023-12-20T02:56:59;18.57;;;5.90;;
10711;SDS011;5407;51.234;6.804;2023-12-20T02:59:25;17.13;;;6.03;;
10711;SDS011;5407;51.234;6.804;2023-12-20T03:01:52;18.80;;;5.77;;
10711;SDS011;5407;51.234;6.804;2023-12-20T03:04:19;16.37;;;4.63;;
10711;SDS011;5407;51.234;6.804;2023-12-20T03:06:46;18.57;;;4.80;;
10711;SDS011;5407;51.234;6.804;2023-12-20T03:09:13;19.43;;;5.00;;
10711;SDS011;5407;51.234;6.804;2023-12-20T03:11:40;20.93;;;4.77;;
10711;SDS011;5407;51.234;6.804;2023-12-20T03:14:08;18.13;;;4.40;;
10711;SDS011;5407;51.234;6.804;2023-12-20T03:16:35;18.23;;;4.57;;
10711;SDS011;5407;51.234;6.804;2023-12-20T03:19:02;16.60;;;4.10;;
10711;SDS011;5407;51.234;6.804;2023-12-20T03:21:29;14.97;;;4.50;;
10711;SDS011;5407;51.234;6.804;2023-12-20T03:23:56;17.67;;;4.53;;
10711;SDS011;5407;51.234;6.804;2023-12-20T03:26:23;20.10;;;5.03;;
10711;SDS011;5407;51.234;6.804;2023-12-20T03:28:50;20.00;;;4.03;;
10711;SDS011;5407;51.234;6.804;2023-12-20T03:31:18;20.40;;;4.20;;
10711;SDS011;5407;51.234;6.804;2023-12-20T03:33:46;18.70;;;4.03;;
10711;SDS011;5407;51.234;6.804;2023-12-20T03:36:13;15.97;;;4.70;;
10711;SDS011;5407;51.234;6.804;2023-12-20T03:38:40;21.73;;;4.50;;
10711;SDS011;5407;51.234;6.804;2023-12-20T03:41:06;14.50;;;4.57;;
10711;SDS011;5407;51.234;6.804;2023-12-20T03:43:34;17.23;;;4.63;;
10711;SDS011;5407;51.234;6.804;2023-12-20T03:46:05;16.23;;;4.70;;
10711;SDS011;5407;51.234;6.804;2023-12-20T03:48:36;13.50;;;4.00;;
10711;SDS011;5407;51.234;6.804;2023-12-20T03:51:03;19.73;;;4.77;;
10711;SDS011;5407;51.234;6.804;2023-12-20T03:53:31;20.80;;;4.93;;
10711;SDS011;5407;51.234;6.804;2023-12-20T03:55:58;19.50;;;4.53;;
10711;SDS011;5407;51.234;6.804;2023-12-20T03:58:32;19.43;;;4.77;;
10711;SDS011;5407;51.234;6.804;2023-12-20T04:00:59;14.73;;;4.60;;
10711;SDS011;5407;51.234;6.804;2023-12-20T04:03:26;19.60;;;4.60;;
10711;SDS011;5407;51.234;6.804;2023-12-20T04:05:55;17.53;;;4.73;;
10711;SDS011;5407;51.234;6.804;2023-12-20T04:08:24;21.17;;;4.60;;
10711;SDS011;5407;51.234;6.804;2023-12-20T04:10:51;19.17;;;4.80;;
10711;SDS011;5407;51.234;6.804;2023-12-20T04:13:18;17.23;;;4.30;;
10711;SDS011;5407;51.234;6.804;2023-12-20T04:15:45;17.70;;;5.13;;
10711;SDS011;5407;51.234;6.804;2023-12-20T04:18:13;20.47;;;5.13;;
10711;SDS011;5407;51.234;6.804;2023-12-20T04:20:40;16.23;;;4.40;;
10711;SDS011;5407;51.234;6.804;2023-12-20T04:23:08;20.17;;;4.90;;
10711;SDS011;5407;51.234;6.804;2023-12-20T04:25:35;21.87;;;5.30;;
10711;SDS011;5407;51.234;6.804;2023-12-20T04:28:02;17.47;;;4.97;;
10711;SDS011;5407;51.234;6.804;2023-12-20T04:30:30;19.50;;;5.23;;
10711;SDS011;5407;51.234;6.804;2023-12-20T04:32:56;20.20;;;5.20;;
10711;SDS011;5407;51.234;6.804;2023-12-20T04:35:23;17.80;;;5.20;;
10711;SDS011;5407;51.234;6.804;2023-12-20T04:37:53;20.10;;;5.00;;
10711;SDS011;5407;51.234;6.804;2023-12-20T04:40:23;19.07;;;5.37;;
10711;SDS011;5407;51.234;6.804;2023-12-20T04:42:50;20.40;;;5.50;;
10711;SDS011;5407;51.234;6.804;2023-12-20T04:45:18;21.60;;;5.40;;
10711;SDS011;5407;51.234;6.804;2023-12-20T04:47:45;19.73;;;5.80;;
10711;SDS011;5407;51.234;6.804;2023-12-20T04:50:12;17.80;;;5.73;;
10711;SDS011;5407;51.234;6.804;2023-12-20T04:52:42;15.67;;;5.40;;
10711;SDS011;5407;51.234;6.804;2023-12-20T04:55:15;17.97;;;6.13;;
10711;SDS011;5407;51.234;6.804;2023-12-20T04:57:46;18.70;;;6.00;;
10711;SDS011;5407;51.234;6.804;2023-12-20T05:00:17;17.17;;;6.23;;
10711;SDS011;5407;51.234;6.804;2023-12-20T05:08:08;15.50;;;5.93;;
10711;SDS011;5407;51.234;6.804;2023-12-20T05:10:35;23.60;;;5.73;;
10711;SDS011;5407;51.234;6.804;2023-12-20T05:13:08;20.37;;;5.70;;
10711;SDS011;5407;51.234;6.804;2023-12-20T05:15:39;19.27;;;6.10;;
10711;SDS011;5407;51.234;6.804;2023-12-20T05:18:11;23.20;;;5.90;;
10711;SDS011;5407;51.234;6.804;2023-12-20T05:20:39;22.37;;;6.43;;
10711;SDS011;5407;51.234;6.804;2023-12-20T05:23:08;21.73;;;5.43;;
10711;SDS011;5407;51.234;6.804;2023-12-20T05:25:36;20.50;;;6.00;;
10711;SDS011;5407;51.234;6.804;2023-12-20T05:28:04;23.27;;;6.00;;
10711;SDS011;5407;51.234;6.804;2023-12-20T05:30:32;14.20;;;5.30;;
10711;SDS011;5407;51.234;6.804;2023-12-20T05:32:59;20.97;;;5.70;;
10711;SDS011;5407;51.234;6.804;2023-12-20T05:35:26;20.57;;;5.83;;
10711;SDS011;5407;51.234;6.804;2023-12-20T05:37:53;18.50;;;5.93;;
10711;SDS011;5407;51.234;6.804;2023-12-20T05:40:19;22.33;;;6.37;;
10711;SDS011;5407;51.234;6.804;2023-12-20T05:42:46;22.83;;;6.33;;
10711;SDS011;5407;51.234;6.804;2023-12-20T05:45:17;23.43;;;6.00;;
10711;SDS011;5407;51.234;6.804;2023-12-20T05:47:44;23.20;;;6.33;;
10711;SDS011;5407;51.234;6.804;2023-12-20T05:50:11;19.13;;;6.03;;
10711;SDS011;5407;51.234;6.804;2023-12-20T05:52:38;18.80;;;5.70;;
10711;SDS011;5407;51.234;6.804;2023-12-20T05:55:05;19.83;;;6.07;;
10711;SDS011;5407;51.234;6.804;2023-12-20T05:57:33;18.07;;;5.60;;
10711;SDS011;5407;51.234;6.804;2023-12-20T05:59:59;19.63;;;6.00;;
10711;SDS011;5407;51.234;6.804;2023-12-20T06:02:38;22.13;;;5.40;;
10711;SDS011;5407;51.234;6.804;2023-12-20T06:05:06;15.83;;;5.50;;
10711;SDS011;5407;51.234;6.804;2023-12-20T06:07:33;21.10;;;5.43;;
10711;SDS011;5407;51.234;6.804;2023-12-20T06:10:00;28.23;;;6.17;;
10711;SDS011;5407;51.234;6.804;2023-12-20T06:12:27;17.60;;;6.13;;
10711;SDS011;5407;51.234;6.804;2023-12-20T06:14:57;19.67;;;6.10;;
10711;SDS011;5407;51.234;6.804;2023-12-20T06:17:24;21.70;;;5.83;;
10711;SDS011;5407;51.234;6.804;2023-12-20T06:19:52;16.13;;;5.67;;
10711;SDS011;5407;51.234;6.804;2023-12-20T06:22:19;21.30;;;6.00;;
10711;SDS011;5407;51.234;6.804;2023-12-20T06:24:46;21.03;;;5.83;;
10711;SDS011;5407;51.234;6.804;2023-12-20T06:27:13;22.53;;;6.47;;
10711;SDS011;5407;51.234;6.804;2023-12-20T06:29:40;23.47;;;5.87;;
10711;SDS011;5407;51.234;6.804;2023-12-20T06:32:09;17.13;;;6.13;;
10711;SDS011;5407;51.234;6.804;2023-12-20T06:34:36;21.97;;;6.60;;
10711;SDS011;5407;51.234;6.804;2023-12-20T06:37:05;19.60;;;6.63;;
10711;SDS011;5407;51.234;6.804;2023-12-20T06:39:32;22.20;;;6.23;;
10711;SDS011;5407;51.234;6.804;2023-12-20T06:42:00;20.80;;;5.97;;
10711;SDS011;5407;51.234;6.804;2023-12-20T06:44:30;26.40;;;6.87;;
10711;SDS011;5407;51.234;6.804;2023-12-20T06:46:57;21.30;;;6.40;;
10711;SDS011;5407;51.234;6.804;2023-12-20T06:49:24;20.90;;;6.57;;
10711;SDS011;5407;51.234;6.804;2023-12-20T06:51:54;20.13;;;6.33;;
10711;SDS011;5407;51.234;6.804;2023-12-20T06:54:23;18.03;;;6.57;;
10711;SDS011;5407;51.234;6.804;2023-12-20T06:56:58;26.97;;;7.27;;
10711;SDS011;5407;51.234;6.804;2023-12-20T06:59:40;17.00;;;6.50;;
10711;SDS011;5407;51.234;6.804;2023-12-20T07:02:08;23.07;;;7.03;;
10711;SDS011;5407;51.234;6.804;2023-12-20T07:04:38;23.37;;;6.00;;
10711;SDS011;5407;51.234;6.804;2023-12-20T07:07:06;26.13;;;6.70;;
10711;SDS011;5407;51.234;6.804;2023-12-20T07:09:37;24.57;;;6.40;;
10711;SDS011;5407;51.234;6.804;2023-12-20T07:12:08;19.73;;;6.13;;
10711;SDS011;5407;51.234;6.804;2023-12-20T07:14:38;18.60;;;5.73;;
10711;SDS011;5407;51.234;6.804;2023-12-20T07:17:08;19.37;;;6.00;;
10711;SDS011;5407;51.234;6.804;2023-12-20T07:19:50;20.10;;;6.30;;
10711;SDS011;5407;51.234;6.804;2023-12-20T07:22:21;24.87;;;6.10;;
10711;SDS011;5407;51.234;6.804;2023-12-20T07:24:55;25.33;;;6.23;;
10711;SDS011;5407;51.234;6.804;2023-12-20T07:27:41;20.57;;;5.37;;
10711;SDS011;5407;51.234;6.804;2023-12-20T07:30:10;23.73;;;6.67;;
10711;SDS011;5407;51.234;6.804;2023-12-20T07:32:38;23.80;;;5.80;;
10711;SDS011;5407;51.234;6.804;2023-12-20T07:35:06;19.40;;;5.70;;
10711;SDS011;5407;51.234;6.804;2023-12-20T07:37:34;23.90;;;6.63;;
10711;SDS011;5407;51.234;6.804;2023-12-20T07:40:07;22.13;;;5.77;;
10711;SDS011;5407;51.234;6.804;2023-12-20T07:42:36;22.17;;;5.80;;
10711;SDS011;5407;51.234;6.804;2023-12-20T07:45:03;23.50;;;6.47;;
10711;SDS011;5407;51.234;6.804;2023-12-20T07:47:31;21.70;;;6.03;;
10711;SDS011;5407;51.234;6.804;2023-12-20T07:49:58;21.13;;;5.80;;
10711;SDS011;5407;51.234;6.804;2023-12-20T07:52:25;22.83;;;6.20;;
10711;SDS011;5407;51.234;6.804;2023-12-20T07:54:52;20.97;;;5.70;;
10711;SDS011;5407;51.234;6.804;2023-12-20T07:57:21;21.53;;;5.97;;
10711;SDS011;5407;51.234;6.804;2023-12-20T07:59:48;18.30;;;5.57;;
10711;SDS011;5407;51.234;6.804;2023-12-20T08:02:15;20.93;;;5.80;;
10711;SDS011;5407;51.234;6.804;2023-12-20T08:04:42;18.77;;;5.97;;
10711;SDS011;5407;51.234;6.804;2023-12-20T08:07:09;22.80;;;6.00;;
10711;SDS011;5407;51.234;6.804;2023-12-20T08:09:36;22.53;;;6.40;;
10711;SDS011;5407;51.234;6.804;2023-12-20T08:12:03;19.47;;;5.93;;
10711;SDS011;5407;51.234;6.804;2023-12-20T08:14:32;22.93;;;5.87;;
10711;SDS011;5407;51.234;6.804;2023-12-20T08:16:59;17.90;;;5.60;;
10711;SDS011;5407;51.234;6.804;2023-12-20T08:19:25;18.97;;;6.03;;
10711;SDS011;5407;51.234;6.804;2023-12-20T08:21:52;22.10;;;6.07;;
10711;SDS011;5407;51.234;6.804;2023-12-20T08:24:19;29.17;;;6.67;;
10711;SDS011;5407;51.234;6.804;2023-12-20T08:26:46;22.97;;;5.67;;
10711;SDS011;5407;51.234;6.804;2023-12-20T08:29:13;22.77;;;4.97;;
10711;SDS011;5407;51.234;6.804;2023-12-20T08:31:42;16.43;;;5.37;;
10711;SDS011;5407;51.234;6.804;2023-12-20T08:34:11;19.50;;;5.50;;
10711;SDS011;5407;51.234;6.804;2023-12-20T08:36:40;24.90;;;5.77;;
10711;SDS011;5407;51.234;6.804;2023-12-20T08:39:07;25.80;;;5.73;;
10711;SDS011;5407;51.234;6.804;2023-12-20T08:41:34;23.37;;;5.47;;
10711;SDS011;5407;51.234;6.804;2023-12-20T08:44:02;25.90;;;5.80;;
10711;SDS011;5407;51.234;6.804;2023-12-20T08:46:29;20.03;;;5.23;;
10711;SDS011;5407;51.234;6.804;2023-12-20T08:48:58;22.97;;;4.93;;
10711;SDS011;5407;51.234;6.804;2023-12-20T08:51:25;18.77;;;5.87;;
10711;SDS011;5407;51.234;6.804;2023-12-20T08:53:55;18.23;;;5.50;;
10711;SDS011;5407;51.234;6.804;2023-12-20T08:59:37;18.80;;;5.63;;
10711;SDS011;5407;51.234;6.804;2023-12-20T09:02:04;20.20;;;5.07;;
10711;SDS011;5407;51.234;6.804;2023-12-20T09:04:33;20.87;;;5.60;;
10711;SDS011;5407;51.234;6.804;2023-12-20T09:07:00;20.93;;;5.53;;
10711;SDS011;5407;51.234;6.804;2023-12-20T09:09:27;21.87;;;5.27;;
10711;SDS011;5407;51.234;6.804;2023-12-20T09:11:54;19.73;;;5.37;;
10711;SDS011;5407;51.234;6.804;2023-12-20T09:14:21;19.53;;;5.40;;
10711;SDS011;5407;51.234;6.804;2023-12-20T09:16:48;16.47;;;5.23;;
10711;SDS011;5407;51.234;6.804;2023-12-20T09:19:21;19.33;;;5.57;;
10711;SDS011;5407;51.234;6.804;2023-12-20T09:21:49;23.57;;;6.13;;
10711;SDS011;5407;51.234;6.804;2023-12-20T09:24:27;22.93;;;5.03;;
10711;SDS011;5407;51.234;6.804;2023-12-20T09:26:54;22.90;;;5.40;;
10711;SDS011;5407;51.234;6.804;2023-12-20T09:29:22;18.30;;;5.13;;
10711;SDS011;5407;51.234;6.804;2023-12-20T09:31:50;20.90;;;5.73;;
10711;SDS011;5407;51.234;6.804;2023-12-20T09:34:17;21.83;;;5.30;;
10711;SDS011;5407;51.234;6.804;2023-12-20T09:36:43;17.60;;;4.73;;
10711;SDS011;5407;51.234;6.804;2023-12-20T09:39:13;17.33;;;4.47;;
10711;SDS011;5407;51.234;6.804;2023-12-20T09:41:44;19.13;;;5.37;;
10711;SDS011;5407;51.234;6.804;2023-12-20T09:44:13;22.27;;;5.17;;
10711;SDS011;5407;51.234;6.804;2023-12-20T09:46:43;20.53;;;4.70;;
10711;SDS011;5407;51.234;6.804;2023-12-20T09:49:12;21.87;;;5.30;;
10711;SDS011;5407;51.234;6.804;2023-12-20T09:51:40;19.30;;;4.87;;
10711;SDS011;5407;51.234;6.804;2023-12-20T09:54:09;21.73;;;5.50;;
10711;SDS011;5407;51.234;6.804;2023-12-20T09:56:38;18.97;;;5.27;;
10711;SDS011;5407;51.234;6.804;2023-12-20T09:59:05;22.57;;;6.77;;
10711;SDS011;5407;51.234;6.804;2023-12-20T10:01:32;19.93;;;4.83;;
10711;SDS011;5407;51.234;6.804;2023-12-20T10:04:00;19.53;;;6.10;;
10711;SDS011;5407;51.234;6.804;2023-12-20T10:06:29;20.40;;;4.90;;
10711;SDS011;5407;51.234;6.804;2023-12-20T10:08:56;14.77;;;4.80;;
10711;SDS011;5407;51.234;6.804;2023-12-20T10:11:23;20.33;;;4.83;;
10711;SDS011;5407;51.234;6.804;2023-12-20T10:13:52;25.43;;;5.53;;
10711;SDS011;5407;51.234;6.804;2023-12-20T10:16:25;16.30;;;4.70;;
10711;SDS011;5407;51.234;6.804;2023-12-20T10:18:52;19.67;;;5.03;;
10711;SDS011;5407;51.234;6.804;2023-12-20T10:21:19;17.63;;;4.90;;
10711;SDS011;5407;51.234;6.804;2023-12-20T10:23:46;23.67;;;5.07;;
10711;SDS011;5407;51.234;6.804;2023-12-20T10:26:19;18.20;;;4.40;;
10711;SDS011;5407;51.234;6.804;2023-12-20T10:28:46;19.17;;;4.90;;
10711;SDS011;5407;51.234;6.804;2023-12-20T10:31:27;15.87;;;4.37;;
10711;SDS011;5407;51.234;6.804;2023-12-20T10:33:55;12.47;;;4.30;;
10711;SDS011;5407;51.234;6.804;2023-12-20T10:36:23;21.47;;;4.97;;
10711;SDS011;5407;51.234;6.804;2023-12-20T10:38:52;16.33;;;4.40;;
10711;SDS011;5407;51.234;6.804;2023-12-20T10:45:07;17.50;;;4.80;;
10711;SDS011;5407;51.234;6.804;2023-12-20T10:47:36;18.03;;;4.63;;
10711;SDS011;5407;51.234;6.804;2023-12-20T10:50:05;20.00;;;4.67;;
10711;SDS011;5407;51.234;6.804;2023-12-20T10:52:34;17.07;;;4.50;;
10711;SDS011;5407;51.234;6.804;2023-12-20T10:55:02;19.33;;;4.57;;
10711;SDS011;5407;51.234;6.804;2023-12-20T10:57:29;14.67;;;3.97;;
10711;SDS011;5407;51.234;6.804;2023-12-20T10:59:57;17.23;;;4.63;;
10711;SDS011;5407;51.234;6.804;2023-12-20T11:02:29;19.83;;;5.13;;
10711;SDS011;5407;51.234;6.804;2023-12-20T11:05:03;22.13;;;4.23;;
10711;SDS011;5407;51.234;6.804;2023-12-20T11:07:35;21.63;;;4.57;;
10711;SDS011;5407;51.234;6.804;2023-12-20T11:10:10;20.33;;;4.73;;
10711;SDS011;5407;51.234;6.804;2023-12-20T11:12:42;18.60;;;5.27;;
10711;SDS011;5407;51.234;6.804;2023-12-20T11:15:13;16.50;;;4.13;;
10711;SDS011;5407;51.234;6.804;2023-12-20T11:17:44;15.83;;;4.80;;
10711;SDS011;5407;51.234;6.804;2023-12-20T11:20:13;20.63;;;4.87;;
10711;SDS011;5407;51.234;6.804;2023-12-20T11:22:39;18.83;;;4.77;;
10711;SDS011;5407;51.234;6.804;2023-12-20T11:25:19;13.43;;;4.40;;
10711;SDS011;5407;51.234;6.804;2023-12-20T11:28:06;19.07;;;4.90;;
10711;SDS011;5407;51.234;6.804;2023-12-20T11:30:40;18.50;;;4.87;;
10711;SDS011;5407;51.234;6.804;2023-12-20T11:33:08;22.63;;;5.27;;
10711;SDS011;5407;51.234;6.804;2023-12-20T11:35:36;21.53;;;4.93;;
10711;SDS011;5407;51.234;6.804;2023-12-20T11:38:04;19.70;;;5.03;;
10711;SDS011;5407;51.234;6.804;2023-12-20T11:40:34;12.50;;;4.40;;
10711;SDS011;5407;51.234;6.804;2023-12-20T11:43:02;25.97;;;7.43;;
10711;SDS011;5407;51.234;6.804;2023-12-20T11:45:29;18.33;;;6.27;;
10711;SDS011;5407;51.234;6.804;2023-12-20T11:47:57;18.87;;;4.63;;
10711;SDS011;5407;51.234;6.804;2023-12-20T11:50:24;17.43;;;4.60;;
10711;SDS011;5407;51.234;6.804;2023-12-20T11:52:54;18.00;;;4.90;;
10711;SDS011;5407;51.234;6.804;2023-12-20T11:55:21;17.00;;;5.17;;
10711;SDS011;5407;51.234;6.804;2023-12-20T11:57:49;17.37;;;4.80;;
10711;SDS011;5407;51.234;6.804;2023-12-20T12:00:16;16.77;;;4.60;;
10711;SDS011;5407;51.234;6.804;2023-12-20T12:02:54;15.37;;;4.63;;
10711;SDS011;5407;51.234;6.804;2023-12-20T12:05:22;15.40;;;4.97;;
10711;SDS011;5407;51.234;6.804;2023-12-20T12:07:49;16.03;;;4.57;;
10711;SDS011;5407;51.234;6.804;2023-12-20T12:10:17;16.60;;;4.50;;
10711;SDS011;5407;51.234;6.804;2023-12-20T12:16:17;17.83;;;4.40;;
10711;SDS011;5407;51.234;6.804;2023-12-20T12:18:44;16.87;;;4.83;;
10711;SDS011;5407;51.234;6.804;2023-12-20T12:21:18;16.13;;;4.57;;
10711;SDS011;5407;51.234;6.804;2023-12-20T12:23:45;15.23;;;4.50;;
10711;SDS011;5407;51.234;6.804;2023-12-20T12:26:14;22.20;;;4.87;;
10711;SDS011;5407;51.234;6.804;2023-12-20T12:28:41;16.37;;;4.37;;
10711;SDS011;5407;51.234;6.804;2023-12-20T12:31:12;15.87;;;4.30;;
10711;SDS011;5407;51.234;6.804;2023-12-20T12:33:40;11.60;;;4.20;;
10711;SDS011;5407;51.234;6.804;2023-12-20T12:36:09;20.63;;;4.80;;
10711;SDS011;5407;51.234;6.804;2023-12-20T12:38:36;14.30;;;4.30;;
10711;SDS011;5407;51.234;6.804;2023-12-20T12:41:04;17.27;;;4.80;;
10711;SDS011;5407;51.234;6.804;2023-12-20T12:43:33;16.03;;;4.27;;
10711;SDS011;5407;51.234;6.804;2023-12-20T12:46:00;17.60;;;4.50;;
10711;SDS011;5407;51.234;6.804;2023-12-20T12:48:27;21.80;;;4.60;;
10711;SDS011;5407;51.234;6.804;2023-12-20T12:50:54;21.27;;;4.90;;
10711;SDS011;5407;51.234;6.804;2023-12-20T12:53:24;16.17;;;4.67;;
10711;SDS011;5407;51.234;6.804;2023-12-20T12:55:52;18.40;;;4.60;;
10711;SDS011;5407;51.234;6.804;2023-12-20T12:58:19;19.00;;;4.97;;
10711;SDS011;5407;51.234;6.804;2023-12-20T13:00:48;13.00;;;4.70;;
10711;SDS011;5407;51.234;6.804;2023-12-20T13:03:15;19.50;;;4.60;;
10711;SDS011;5407;51.234;6.804;2023-12-20T13:05:42;21.57;;;5.13;;
10711;SDS011;5407;51.234;6.804;2023-12-20T13:08:09;16.93;;;4.97;;
10711;SDS011;5407;51.234;6.804;2023-12-20T13:10:37;19.43;;;5.10;;
10711;SDS011;5407;51.234;6.804;2023-12-20T13:13:04;19.57;;;5.77;;
10711;SDS011;5407;51.234;6.804;2023-12-20T13:15:31;20.00;;;5.23;;
10711;SDS011;5407;51.234;6.804;2023-12-20T13:17:59;18.53;;;5.40;;
10711;SDS011;5407;51.234;6.804;2023-12-20T13:20:26;19.20;;;5.20;;
10711;SDS011;5407;51.234;6.804;2023-12-20T13:22:53;19.30;;;5.63;;
10711;SDS011;5407;51.234;6.804;2023-12-20T13:25:20;17.07;;;5.33;;
10711;SDS011;5407;51.234;6.804;2023-12-20T13:27:47;18.10;;;5.40;;
10711;SDS011;5407;51.234;6.804;2023-12-20T13:30:15;17.43;;;5.33;;
10711;SDS011;5407;51.234;6.804;2023-12-20T13:32:43;22.17;;;5.80;;
10711;SDS011;5407;51.234;6.804;2023-12-20T13:35:12;17.13;;;5.57;;
10711;SDS011;5407;51.234;6.804;2023-12-20T13:37:39;19.13;;;5.70;;
10711;SDS011;5407;51.234;6.804;2023-12-20T13:40:06;20.07;;;5.83;;
10711;SDS011;5407;51.234;6.804;2023-12-20T13:42:34;17.47;;;5.50;;
10711;SDS011;5407;51.234;6.804;2023-12-20T13:50:26;21.20;;;6.30;;
10711;SDS011;5407;51.234;6.804;2023-12-20T13:52:54;19.77;;;6.40;;
10711;SDS011;5407;51.234;6.804;2023-12-20T13:55:21;17.70;;;5.90;;
10711;SDS011;5407;51.234;6.804;2023-12-20T13:57:50;17.73;;;5.97;;
10711;SDS011;5407;51.234;6.804;2023-12-20T14:00:17;16.83;;;5.40;;
10711;SDS011;5407;51.234;6.804;2023-12-20T14:02:44;20.93;;;6.10;;
10711;SDS011;5407;51.234;6.804;2023-12-20T14:05:11;15.43;;;5.30;;
10711;SDS011;5407;51.234;6.804;2023-12-20T14:07:41;15.80;;;5.57;;
10711;SDS011;5407;51.234;6.804;2023-12-20T14:10:10;15.87;;;5.27;;
10711;SDS011;5407;51.234;6.804;2023-12-20T14:12:38;15.20;;;5.57;;
10711;SDS011;5407;51.234;6.804;2023-12-20T14:15:05;22.30;;;5.60;;
10711;SDS011;5407;51.234;6.804;2023-12-20T14:17:36;16.90;;;5.63;;
10711;SDS011;5407;51.234;6.804;2023-12-20T14:20:04;17.27;;;5.00;;
10711;SDS011;5407;51.234;6.804;2023-12-20T14:22:33;16.37;;;5.37;;
10711;SDS011;5407;51.234;6.804;2023-12-20T14:25:01;13.70;;;5.33;;
10711;SDS011;5407;51.234;6.804;2023-12-20T14:30:11;14.47;;;4.77;;
10711;SDS011;5407;51.234;6.804;2023-12-20T14:32:39;16.60;;;5.00;;
10711;SDS011;5407;51.234;6.804;2023-12-20T14:35:06;14.07;;;4.50;;
10711;SDS011;5407;51.234;6.804;2023-12-20T14:37:34;13.50;;;4.83;;
10711;SDS011;5407;51.234;6.804;2023-12-20T14:40:06;21.27;;;6.77;;
10711;SDS011;5407;51.234;6.804;2023-12-20T14:42:36;16.30;;;4.73;;
10711;SDS011;5407;51.234;6.804;2023-12-20T14:45:03;14.87;;;5.10;;
10711;SDS011;5407;51.234;6.804;2023-12-20T14:47:31;15.13;;;5.23;;
10711;SDS011;5407;51.234;6.804;2023-12-20T14:49:58;19.63;;;5.50;;
10711;SDS011;5407;51.234;6.804;2023-12-20T14:52:24;16.97;;;5.83;;
10711;SDS011;5407;51.234;6.804;2023-12-20T14:54:51;19.63;;;5.60;;
10711;SDS011;5407;51.234;6.804;2023-12-20T14:57:20;14.17;;;5.00;;
10711;SDS011;5407;51.234;6.804;2023-12-20T14:59:47;16.10;;;5.20;;
10711;SDS011;5407;51.234;6.804;2023-12-20T15:02:14;14.73;;;4.90;;
10711;SDS011;5407;51.234;6.804;2023-12-20T15:04:40;16.87;;;4.80;;
10711;SDS011;5407;51.234;6.804;2023-12-20T15:07:07;15.30;;;4.73;;
10711;SDS011;5407;51.234;6.804;2023-12-20T15:09:34;14.30;;;5.33;;
10711;SDS011;5407;51.234;6.804;2023-12-20T15:12:01;15.90;;;4.90;;
10711;SDS011;5407;51.234;6.804;2023-12-20T15:14:31;17.93;;;4.83;;
10711;SDS011;5407;51.234;6.804;2023-12-20T15:16:58;16.47;;;4.90;;
10711;SDS011;5407;51.234;6.804;2023-12-20T15:19:25;19.10;;;5.27;;
10711;SDS011;5407;51.234;6.804;2023-12-20T15:21:52;15.60;;;5.20;;